sensor_id;sensor_type;location;lat;lon;timestamp;P1;durP1;ratioP1;P2;durP2;ratioP2
41661;SDS011;27351;45.992;12.666;2023-08-24T00:00:46;9.13;;;3.92;;
41661;SDS011;27351;45.992;12.666;2023-08-24T00:03:12;7.30;;;3.70;;
41661;SDS011;27351;45.992;12.666;2023-08-24T00:05:37;7.27;;;4.13;;
41661;SDS011;27351;45.992;12.666;2023-08-24T00:08:07;9.13;;;4.00;;
41661;SDS011;27351;45.992;12.666;2023-08-24T00:10:36;8.27;;;3.60;;
41661;SDS011;27351;45.992;12.666;2023-08-24T00:13:02;8.00;;;3.60;;
41661;SDS011;27351;45.992;12.666;2023-08-24T00:15:27;7.87;;;3.73;;
41661;SDS011;27351;45.992;12.666;2023-08-24T00:17:53;7.90;;;3.25;;
41661;SDS011;27351;45.992;12.666;2023-08-24T00:20:19;7.40;;;3.65;;
41661;SDS011;27351;45.992;12.666;2023-08-24T00:22:45;6.90;;;3.60;;
41661;SDS011;27351;45.992;12.666;2023-08-24T00:25:11;6.88;;;4.00;;
41661;SDS011;27351;45.992;12.666;2023-08-24T00:27:37;8.77;;;4.25;;
41661;SDS011;27351;45.992;12.666;2023-08-24T00:30:03;8.17;;;3.77;;
41661;SDS011;27351;45.992;12.666;2023-08-24T00:32:35;7.35;;;3.88;;
41661;SDS011;27351;45.992;12.666;2023-08-24T00:35:01;7.43;;;3.88;;
41661;SDS011;27351;45.992;12.666;2023-08-24T00:37:27;7.10;;;3.80;;
41661;SDS011;27351;45.992;12.666;2023-08-24T00:39:55;8.48;;;4.60;;
41661;SDS011;27351;45.992;12.666;2023-08-24T00:42:21;8.37;;;3.90;;
41661;SDS011;27351;45.992;12.666;2023-08-24T00:44:48;7.03;;;3.70;;
41661;SDS011;27351;45.992;12.666;2023-08-24T00:47:13;9.18;;;4.63;;
41661;SDS011;27351;45.992;12.666;2023-08-24T00:49:39;7.80;;;4.28;;
41661;SDS011;27351;45.992;12.666;2023-08-24T00:52:05;7.97;;;4.17;;
41661;SDS011;27351;45.992;12.666;2023-08-24T00:54:30;8.07;;;3.78;;
41661;SDS011;27351;45.992;12.666;2023-08-24T00:56:56;7.23;;;3.83;;
41661;SDS011;27351;45.992;12.666;2023-08-24T00:59:22;8.60;;;4.17;;
41661;SDS011;27351;45.992;12.666;2023-08-24T01:01:47;8.30;;;3.80;;
41661;SDS011;27351;45.992;12.666;2023-08-24T01:04:13;7.35;;;3.88;;
41661;SDS011;27351;45.992;12.666;2023-08-24T01:06:39;6.95;;;4.00;;
41661;SDS011;27351;45.992;12.666;2023-08-24T01:09:06;8.25;;;4.32;;
41661;SDS011;27351;45.992;12.666;2023-08-24T01:11:36;7.45;;;4.10;;
41661;SDS011;27351;45.992;12.666;2023-08-24T01:14:21;8.88;;;4.43;;
41661;SDS011;27351;45.992;12.666;2023-08-24T01:16:49;7.70;;;4.20;;
41661;SDS011;27351;45.992;12.666;2023-08-24T01:21:47;8.38;;;4.10;;
41661;SDS011;27351;45.992;12.666;2023-08-24T01:24:26;9.53;;;4.33;;
41661;SDS011;27351;45.992;12.666;2023-08-24T01:26:56;8.18;;;4.40;;
41661;SDS011;27351;45.992;12.666;2023-08-24T01:29:22;7.20;;;4.07;;
41661;SDS011;27351;45.992;12.666;2023-08-24T01:31:48;7.80;;;3.78;;
41661;SDS011;27351;45.992;12.666;2023-08-24T01:34:14;8.73;;;4.82;;
41661;SDS011;27351;45.992;12.666;2023-08-24T01:36:40;6.75;;;3.90;;
41661;SDS011;27351;45.992;12.666;2023-08-24T01:39:50;7.93;;;4.00;;
41661;SDS011;27351;45.992;12.666;2023-08-24T01:41:55;10.02;;;4.13;;
41661;SDS011;27351;45.992;12.666;2023-08-24T01:44:26;6.93;;;4.00;;
41661;SDS011;27351;45.992;12.666;2023-08-24T01:46:53;9.35;;;4.47;;
41661;SDS011;27351;45.992;12.666;2023-08-24T01:49:19;8.48;;;4.10;;
41661;SDS011;27351;45.992;12.666;2023-08-24T01:51:45;8.63;;;4.30;;
41661;SDS011;27351;45.992;12.666;2023-08-24T01:54:11;8.67;;;4.20;;
41661;SDS011;27351;45.992;12.666;2023-08-24T01:56:37;8.15;;;4.28;;
41661;SDS011;27351;45.992;12.666;2023-08-24T01:59:03;7.40;;;3.90;;
41661;SDS011;27351;45.992;12.666;2023-08-24T02:01:29;8.95;;;4.72;;
41661;SDS011;27351;45.992;12.666;2023-08-24T02:03:55;8.75;;;4.43;;
41661;SDS011;27351;45.992;12.666;2023-08-24T02:06:21;8.48;;;4.50;;
41661;SDS011;27351;45.992;12.666;2023-08-24T02:08:47;9.15;;;3.80;;
41661;SDS011;27351;45.992;12.666;2023-08-24T02:11:13;10.00;;;4.30;;
41661;SDS011;27351;45.992;12.666;2023-08-24T02:13:38;9.77;;;4.18;;
41661;SDS011;27351;45.992;12.666;2023-08-24T02:16:04;8.57;;;4.40;;
41661;SDS011;27351;45.992;12.666;2023-08-24T02:18:30;7.77;;;4.27;;
41661;SDS011;27351;45.992;12.666;2023-08-24T02:20:56;8.50;;;4.33;;
41661;SDS011;27351;45.992;12.666;2023-08-24T02:23:22;7.70;;;4.00;;
41661;SDS011;27351;45.992;12.666;2023-08-24T02:25:47;8.37;;;4.23;;
41661;SDS011;27351;45.992;12.666;2023-08-24T02:28:13;7.13;;;4.10;;
41661;SDS011;27351;45.992;12.666;2023-08-24T02:30:38;8.90;;;4.57;;
41661;SDS011;27351;45.992;12.666;2023-08-24T02:33:04;7.27;;;4.20;;
41661;SDS011;27351;45.992;12.666;2023-08-24T02:35:30;7.77;;;3.87;;
41661;SDS011;27351;45.992;12.666;2023-08-24T02:37:56;7.37;;;4.30;;
41661;SDS011;27351;45.992;12.666;2023-08-24T02:40:22;8.32;;;4.32;;
41661;SDS011;27351;45.992;12.666;2023-08-24T02:42:49;8.00;;;4.40;;
41661;SDS011;27351;45.992;12.666;2023-08-24T02:45:15;8.53;;;4.07;;
41661;SDS011;27351;45.992;12.666;2023-08-24T02:47:40;7.40;;;4.10;;
41661;SDS011;27351;45.992;12.666;2023-08-24T02:50:06;9.07;;;4.63;;
41661;SDS011;27351;45.992;12.666;2023-08-24T02:52:32;8.07;;;4.22;;
41661;SDS011;27351;45.992;12.666;2023-08-24T02:54:58;8.93;;;4.72;;
41661;SDS011;27351;45.992;12.666;2023-08-24T02:57:23;7.47;;;4.10;;
41661;SDS011;27351;45.992;12.666;2023-08-24T02:59:49;9.10;;;4.70;;
41661;SDS011;27351;45.992;12.666;2023-08-24T03:02:14;7.72;;;4.10;;
41661;SDS011;27351;45.992;12.666;2023-08-24T03:04:40;7.93;;;4.35;;
41661;SDS011;27351;45.992;12.666;2023-08-24T03:07:06;7.90;;;4.40;;
41661;SDS011;27351;45.992;12.666;2023-08-24T03:09:34;10.20;;;4.63;;
41661;SDS011;27351;45.992;12.666;2023-08-24T03:12:00;9.10;;;4.88;;
41661;SDS011;27351;45.992;12.666;2023-08-24T03:14:26;7.63;;;4.10;;
41661;SDS011;27351;45.992;12.666;2023-08-24T03:16:51;7.87;;;4.37;;
41661;SDS011;27351;45.992;12.666;2023-08-24T03:19:17;9.10;;;4.28;;
41661;SDS011;27351;45.992;12.666;2023-08-24T03:21:43;10.57;;;5.20;;
41661;SDS011;27351;45.992;12.666;2023-08-24T03:24:09;7.93;;;4.27;;
41661;SDS011;27351;45.992;12.666;2023-08-24T03:26:35;8.32;;;4.95;;
41661;SDS011;27351;45.992;12.666;2023-08-24T03:29:00;8.67;;;4.47;;
41661;SDS011;27351;45.992;12.666;2023-08-24T03:31:26;9.37;;;4.63;;
41661;SDS011;27351;45.992;12.666;2023-08-24T03:33:51;9.02;;;4.47;;
41661;SDS011;27351;45.992;12.666;2023-08-24T03:36:17;8.00;;;4.50;;
41661;SDS011;27351;45.992;12.666;2023-08-24T03:38:44;8.75;;;4.47;;
41661;SDS011;27351;45.992;12.666;2023-08-24T03:41:10;9.20;;;4.60;;
41661;SDS011;27351;45.992;12.666;2023-08-24T03:43:36;8.38;;;4.45;;
41661;SDS011;27351;45.992;12.666;2023-08-24T03:46:03;9.45;;;4.63;;
41661;SDS011;27351;45.992;12.666;2023-08-24T03:48:32;9.40;;;4.72;;
41661;SDS011;27351;45.992;12.666;2023-08-24T03:50:57;8.70;;;4.65;;
41661;SDS011;27351;45.992;12.666;2023-08-24T03:53:29;9.83;;;4.80;;
41661;SDS011;27351;45.992;12.666;2023-08-24T03:55:55;8.45;;;4.45;;
41661;SDS011;27351;45.992;12.666;2023-08-24T03:58:21;10.02;;;4.60;;
41661;SDS011;27351;45.992;12.666;2023-08-24T04:00:47;11.35;;;4.68;;
41661;SDS011;27351;45.992;12.666;2023-08-24T04:03:12;9.02;;;4.30;;
41661;SDS011;27351;45.992;12.666;2023-08-24T04:05:38;9.80;;;4.60;;
41661;SDS011;27351;45.992;12.666;2023-08-24T04:08:04;8.93;;;5.13;;
41661;SDS011;27351;45.992;12.666;2023-08-24T04:10:30;9.20;;;4.60;;
41661;SDS011;27351;45.992;12.666;2023-08-24T04:12:57;12.47;;;5.40;;
41661;SDS011;27351;45.992;12.666;2023-08-24T04:15:23;8.20;;;4.70;;
41661;SDS011;27351;45.992;12.666;2023-08-24T04:17:49;9.38;;;5.57;;
41661;SDS011;27351;45.992;12.666;2023-08-24T04:20:14;13.07;;;5.10;;
41661;SDS011;27351;45.992;12.666;2023-08-24T04:22:41;9.50;;;5.38;;
41661;SDS011;27351;45.992;12.666;2023-08-24T04:25:07;9.50;;;4.78;;
41661;SDS011;27351;45.992;12.666;2023-08-24T04:27:33;8.07;;;4.45;;
41661;SDS011;27351;45.992;12.666;2023-08-24T04:29:59;10.60;;;5.27;;
41661;SDS011;27351;45.992;12.666;2023-08-24T04:32:26;9.88;;;5.10;;
41661;SDS011;27351;45.992;12.666;2023-08-24T04:34:55;8.02;;;4.22;;
41661;SDS011;27351;45.992;12.666;2023-08-24T04:37:20;10.65;;;4.60;;
41661;SDS011;27351;45.992;12.666;2023-08-24T04:39:46;9.20;;;4.33;;
41661;SDS011;27351;45.992;12.666;2023-08-24T04:42:11;9.40;;;4.00;;
41661;SDS011;27351;45.992;12.666;2023-08-24T04:44:37;10.40;;;4.80;;
41661;SDS011;27351;45.992;12.666;2023-08-24T04:47:03;9.20;;;4.67;;
41661;SDS011;27351;45.992;12.666;2023-08-24T04:49:31;9.38;;;4.40;;
41661;SDS011;27351;45.992;12.666;2023-08-24T04:51:57;10.17;;;4.20;;
41661;SDS011;27351;45.992;12.666;2023-08-24T04:54:22;7.90;;;4.40;;
41661;SDS011;27351;45.992;12.666;2023-08-24T04:56:48;8.52;;;4.68;;
41661;SDS011;27351;45.992;12.666;2023-08-24T04:59:13;8.20;;;4.50;;
41661;SDS011;27351;45.992;12.666;2023-08-24T05:01:39;9.52;;;4.60;;
41661;SDS011;27351;45.992;12.666;2023-08-24T05:04:05;7.80;;;4.30;;
41661;SDS011;27351;45.992;12.666;2023-08-24T05:06:30;10.43;;;4.57;;
41661;SDS011;27351;45.992;12.666;2023-08-24T05:08:56;8.93;;;4.20;;
41661;SDS011;27351;45.992;12.666;2023-08-24T05:11:22;8.00;;;4.70;;
41661;SDS011;27351;45.992;12.666;2023-08-24T05:13:49;12.60;;;4.78;;
41661;SDS011;27351;45.992;12.666;2023-08-24T05:16:15;8.00;;;4.50;;
41661;SDS011;27351;45.992;12.666;2023-08-24T05:18:41;9.20;;;4.47;;
41661;SDS011;27351;45.992;12.666;2023-08-24T05:21:07;12.90;;;5.30;;
41661;SDS011;27351;45.992;12.666;2023-08-24T05:23:33;9.97;;;5.03;;
41661;SDS011;27351;45.992;12.666;2023-08-24T05:25:59;11.23;;;4.72;;
41661;SDS011;27351;45.992;12.666;2023-08-24T05:28:25;11.27;;;4.33;;
41661;SDS011;27351;45.992;12.666;2023-08-24T05:30:54;8.65;;;4.80;;
41661;SDS011;27351;45.992;12.666;2023-08-24T05:33:20;10.60;;;4.78;;
41661;SDS011;27351;45.992;12.666;2023-08-24T05:35:46;9.23;;;4.25;;
41661;SDS011;27351;45.992;12.666;2023-08-24T05:38:12;8.52;;;4.28;;
41661;SDS011;27351;45.992;12.666;2023-08-24T05:40:38;7.72;;;4.60;;
41661;SDS011;27351;45.992;12.666;2023-08-24T05:43:04;10.23;;;4.60;;
41661;SDS011;27351;45.992;12.666;2023-08-24T05:45:31;7.25;;;3.92;;
41661;SDS011;27351;45.992;12.666;2023-08-24T05:47:57;9.02;;;4.50;;
41661;SDS011;27351;45.992;12.666;2023-08-24T05:50:23;8.65;;;4.95;;
41661;SDS011;27351;45.992;12.666;2023-08-24T05:52:48;9.60;;;4.30;;
41661;SDS011;27351;45.992;12.666;2023-08-24T05:55:14;9.32;;;4.40;;
41661;SDS011;27351;45.992;12.666;2023-08-24T05:57:40;9.07;;;4.30;;
41661;SDS011;27351;45.992;12.666;2023-08-24T06:00:06;13.47;;;4.97;;
41661;SDS011;27351;45.992;12.666;2023-08-24T06:02:41;7.85;;;4.22;;
41661;SDS011;27351;45.992;12.666;2023-08-24T06:05:07;9.48;;;4.57;;
41661;SDS011;27351;45.992;12.666;2023-08-24T06:07:33;8.60;;;4.18;;
41661;SDS011;27351;45.992;12.666;2023-08-24T06:09:58;7.95;;;4.15;;
41661;SDS011;27351;45.992;12.666;2023-08-24T06:12:24;8.23;;;4.53;;
41661;SDS011;27351;45.992;12.666;2023-08-24T06:14:50;9.00;;;4.47;;
41661;SDS011;27351;45.992;12.666;2023-08-24T06:17:16;11.57;;;4.50;;
41661;SDS011;27351;45.992;12.666;2023-08-24T06:19:42;9.40;;;3.92;;
41661;SDS011;27351;45.992;12.666;2023-08-24T06:22:07;10.77;;;4.57;;
41661;SDS011;27351;45.992;12.666;2023-08-24T06:24:33;9.47;;;4.37;;
41661;SDS011;27351;45.992;12.666;2023-08-24T06:26:58;8.30;;;4.28;;
41661;SDS011;27351;45.992;12.666;2023-08-24T06:29:24;9.07;;;4.60;;
41661;SDS011;27351;45.992;12.666;2023-08-24T06:31:49;14.35;;;5.22;;
41661;SDS011;27351;45.992;12.666;2023-08-24T06:34:15;9.43;;;4.30;;
41661;SDS011;27351;45.992;12.666;2023-08-24T06:36:40;10.57;;;4.60;;
41661;SDS011;27351;45.992;12.666;2023-08-24T06:39:06;9.40;;;4.50;;
41661;SDS011;27351;45.992;12.666;2023-08-24T06:41:35;10.35;;;4.00;;
41661;SDS011;27351;45.992;12.666;2023-08-24T06:44:06;9.27;;;3.90;;
41661;SDS011;27351;45.992;12.666;2023-08-24T06:46:31;8.17;;;4.27;;
41661;SDS011;27351;45.992;12.666;2023-08-24T06:48:57;8.18;;;3.92;;
41661;SDS011;27351;45.992;12.666;2023-08-24T06:51:23;8.90;;;4.20;;
41661;SDS011;27351;45.992;12.666;2023-08-24T06:53:48;7.37;;;4.20;;
41661;SDS011;27351;45.992;12.666;2023-08-24T06:56:14;10.60;;;4.57;;
41661;SDS011;27351;45.992;12.666;2023-08-24T06:58:47;7.18;;;4.07;;
41661;SDS011;27351;45.992;12.666;2023-08-24T07:01:13;9.07;;;4.20;;
41661;SDS011;27351;45.992;12.666;2023-08-24T07:03:39;6.95;;;4.03;;
41661;SDS011;27351;45.992;12.666;2023-08-24T07:06:07;10.45;;;4.38;;
41661;SDS011;27351;45.992;12.666;2023-08-24T07:08:33;8.60;;;4.35;;
41661;SDS011;27351;45.992;12.666;2023-08-24T07:10:59;7.60;;;3.80;;
41661;SDS011;27351;45.992;12.666;2023-08-24T07:13:25;7.27;;;4.20;;
41661;SDS011;27351;45.992;12.666;2023-08-24T07:15:52;10.20;;;4.38;;
41661;SDS011;27351;45.992;12.666;2023-08-24T07:18:17;8.07;;;4.13;;
41661;SDS011;27351;45.992;12.666;2023-08-24T07:20:43;8.13;;;4.25;;
41661;SDS011;27351;45.992;12.666;2023-08-24T07:23:08;8.17;;;3.90;;
41661;SDS011;27351;45.992;12.666;2023-08-24T07:25:35;9.45;;;4.07;;
41661;SDS011;27351;45.992;12.666;2023-08-24T07:28:01;10.20;;;4.28;;
41661;SDS011;27351;45.992;12.666;2023-08-24T07:30:28;10.52;;;4.47;;
41661;SDS011;27351;45.992;12.666;2023-08-24T07:32:54;8.48;;;4.15;;
41661;SDS011;27351;45.992;12.666;2023-08-24T07:35:20;7.67;;;4.50;;
41661;SDS011;27351;45.992;12.666;2023-08-24T07:37:47;8.47;;;4.07;;
41661;SDS011;27351;45.992;12.666;2023-08-24T07:40:13;8.05;;;4.90;;
41661;SDS011;27351;45.992;12.666;2023-08-24T07:42:49;7.65;;;4.10;;
41661;SDS011;27351;45.992;12.666;2023-08-24T07:45:22;8.60;;;4.15;;
41661;SDS011;27351;45.992;12.666;2023-08-24T07:47:48;7.72;;;4.10;;
41661;SDS011;27351;45.992;12.666;2023-08-24T07:50:14;8.93;;;4.28;;
41661;SDS011;27351;45.992;12.666;2023-08-24T07:52:40;7.32;;;3.80;;
41661;SDS011;27351;45.992;12.666;2023-08-24T07:55:06;7.20;;;3.70;;
41661;SDS011;27351;45.992;12.666;2023-08-24T07:57:33;6.78;;;3.60;;
41661;SDS011;27351;45.992;12.666;2023-08-24T07:59:59;7.65;;;3.95;;
41661;SDS011;27351;45.992;12.666;2023-08-24T08:02:24;9.30;;;4.35;;
41661;SDS011;27351;45.992;12.666;2023-08-24T08:04:50;8.60;;;4.30;;
41661;SDS011;27351;45.992;12.666;2023-08-24T08:07:15;7.93;;;4.13;;
41661;SDS011;27351;45.992;12.666;2023-08-24T08:09:42;9.82;;;4.25;;
41661;SDS011;27351;45.992;12.666;2023-08-24T08:12:07;8.70;;;3.97;;
41661;SDS011;27351;45.992;12.666;2023-08-24T08:14:33;10.23;;;4.90;;
41661;SDS011;27351;45.992;12.666;2023-08-24T08:16:59;10.80;;;4.70;;
41661;SDS011;27351;45.992;12.666;2023-08-24T08:19:24;13.32;;;4.85;;
41661;SDS011;27351;45.992;12.666;2023-08-24T08:21:53;7.70;;;4.37;;
41661;SDS011;27351;45.992;12.666;2023-08-24T08:24:19;7.80;;;3.90;;
41661;SDS011;27351;45.992;12.666;2023-08-24T08:26:44;7.47;;;4.13;;
41661;SDS011;27351;45.992;12.666;2023-08-24T08:29:10;7.63;;;4.03;;
41661;SDS011;27351;45.992;12.666;2023-08-24T08:31:35;7.50;;;4.00;;
41661;SDS011;27351;45.992;12.666;2023-08-24T08:34:01;8.10;;;4.07;;
41661;SDS011;27351;45.992;12.666;2023-08-24T08:36:26;10.27;;;4.35;;
41661;SDS011;27351;45.992;12.666;2023-08-24T08:38:52;8.50;;;3.67;;
41661;SDS011;27351;45.992;12.666;2023-08-24T08:41:17;8.18;;;3.67;;
41661;SDS011;27351;45.992;12.666;2023-08-24T08:43:46;7.25;;;3.83;;
41661;SDS011;27351;45.992;12.666;2023-08-24T08:46:12;7.28;;;3.80;;
41661;SDS011;27351;45.992;12.666;2023-08-24T08:48:40;7.47;;;3.63;;
41661;SDS011;27351;45.992;12.666;2023-08-24T08:51:06;8.10;;;4.07;;
41661;SDS011;27351;45.992;12.666;2023-08-24T08:53:32;7.50;;;3.77;;
41661;SDS011;27351;45.992;12.666;2023-08-24T08:55:58;9.38;;;3.85;;
41661;SDS011;27351;45.992;12.666;2023-08-24T08:58:29;9.95;;;4.10;;
41661;SDS011;27351;45.992;12.666;2023-08-24T09:00:54;12.43;;;4.80;;
41661;SDS011;27351;45.992;12.666;2023-08-24T09:03:20;10.75;;;4.07;;
41661;SDS011;27351;45.992;12.666;2023-08-24T09:05:46;8.25;;;4.18;;
41661;SDS011;27351;45.992;12.666;2023-08-24T09:08:15;7.47;;;4.38;;
41661;SDS011;27351;45.992;12.666;2023-08-24T09:10:41;8.17;;;4.27;;
41661;SDS011;27351;45.992;12.666;2023-08-24T09:13:07;7.47;;;3.75;;
41661;SDS011;27351;45.992;12.666;2023-08-24T09:15:34;7.28;;;4.05;;
41661;SDS011;27351;45.992;12.666;2023-08-24T09:18:01;8.00;;;3.42;;
41661;SDS011;27351;45.992;12.666;2023-08-24T09:20:27;6.95;;;3.60;;
41661;SDS011;27351;45.992;12.666;2023-08-24T09:22:54;7.57;;;3.97;;
41661;SDS011;27351;45.992;12.666;2023-08-24T09:25:22;10.20;;;4.00;;
41661;SDS011;27351;45.992;12.666;2023-08-24T09:27:57;7.05;;;3.70;;
41661;SDS011;27351;45.992;12.666;2023-08-24T09:30:28;7.97;;;3.75;;
41661;SDS011;27351;45.992;12.666;2023-08-24T09:32:54;7.38;;;3.40;;
41661;SDS011;27351;45.992;12.666;2023-08-24T09:35:19;6.53;;;3.03;;
41661;SDS011;27351;45.992;12.666;2023-08-24T09:37:46;8.17;;;3.70;;
41661;SDS011;27351;45.992;12.666;2023-08-24T09:40:14;7.30;;;3.72;;
41661;SDS011;27351;45.992;12.666;2023-08-24T09:42:41;10.07;;;3.72;;
41661;SDS011;27351;45.992;12.666;2023-08-24T09:45:13;5.32;;;3.17;;
41661;SDS011;27351;45.992;12.666;2023-08-24T09:47:39;7.07;;;3.40;;
41661;SDS011;27351;45.992;12.666;2023-08-24T09:50:10;7.13;;;3.20;;
41661;SDS011;27351;45.992;12.666;2023-08-24T09:52:35;6.60;;;3.38;;
41661;SDS011;27351;45.992;12.666;2023-08-24T09:55:03;6.85;;;3.33;;
41661;SDS011;27351;45.992;12.666;2023-08-24T09:57:39;6.03;;;3.33;;
41661;SDS011;27351;45.992;12.666;2023-08-24T10:00:06;6.00;;;3.70;;
41661;SDS011;27351;45.992;12.666;2023-08-24T10:02:47;6.18;;;3.05;;
41661;SDS011;27351;45.992;12.666;2023-08-24T10:05:14;5.55;;;3.00;;
41661;SDS011;27351;45.992;12.666;2023-08-24T10:07:53;6.85;;;3.47;;
41661;SDS011;27351;45.992;12.666;2023-08-24T10:10:23;8.73;;;3.88;;
41661;SDS011;27351;45.992;12.666;2023-08-24T10:12:51;6.47;;;3.60;;
41661;SDS011;27351;45.992;12.666;2023-08-24T10:15:17;9.23;;;3.90;;
41661;SDS011;27351;45.992;12.666;2023-08-24T10:17:44;7.53;;;4.20;;
41661;SDS011;27351;45.992;12.666;2023-08-24T10:20:10;8.70;;;3.97;;
41661;SDS011;27351;45.992;12.666;2023-08-24T10:22:36;6.95;;;3.53;;
41661;SDS011;27351;45.992;12.666;2023-08-24T10:25:02;8.00;;;4.18;;
41661;SDS011;27351;45.992;12.666;2023-08-24T10:27:29;7.90;;;3.90;;
41661;SDS011;27351;45.992;12.666;2023-08-24T10:29:55;8.65;;;4.00;;
41661;SDS011;27351;45.992;12.666;2023-08-24T10:32:21;7.07;;;3.58;;
41661;SDS011;27351;45.992;12.666;2023-08-24T10:34:47;7.88;;;3.63;;
41661;SDS011;27351;45.992;12.666;2023-08-24T10:37:13;7.15;;;3.80;;
41661;SDS011;27351;45.992;12.666;2023-08-24T10:39:45;8.63;;;4.10;;
41661;SDS011;27351;45.992;12.666;2023-08-24T10:42:11;6.30;;;3.30;;
41661;SDS011;27351;45.992;12.666;2023-08-24T10:44:38;5.70;;;3.30;;
41661;SDS011;27351;45.992;12.666;2023-08-24T10:47:11;6.68;;;3.60;;
41661;SDS011;27351;45.992;12.666;2023-08-24T10:50:01;6.30;;;3.60;;
41661;SDS011;27351;45.992;12.666;2023-08-24T10:52:32;9.13;;;3.55;;
41661;SDS011;27351;45.992;12.666;2023-08-24T10:55:00;9.35;;;3.92;;
41661;SDS011;27351;45.992;12.666;2023-08-24T10:57:26;6.97;;;3.50;;
41661;SDS011;27351;45.992;12.666;2023-08-24T11:00:00;7.60;;;3.67;;
41661;SDS011;27351;45.992;12.666;2023-08-24T11:02:31;9.07;;;3.40;;
41661;SDS011;27351;45.992;12.666;2023-08-24T11:07:54;7.37;;;3.90;;
41661;SDS011;27351;45.992;12.666;2023-08-24T11:10:21;7.43;;;3.30;;
41661;SDS011;27351;45.992;12.666;2023-08-24T11:13:06;6.25;;;3.38;;
41661;SDS011;27351;45.992;12.666;2023-08-24T11:15:32;7.43;;;3.83;;
41661;SDS011;27351;45.992;12.666;2023-08-24T11:18:31;6.80;;;3.90;;
41661;SDS011;27351;45.992;12.666;2023-08-24T11:23:19;8.23;;;4.03;;
41661;SDS011;27351;45.992;12.666;2023-08-24T11:25:46;9.55;;;4.35;;
41661;SDS011;27351;45.992;12.666;2023-08-24T11:28:16;7.05;;;3.88;;
41661;SDS011;27351;45.992;12.666;2023-08-24T11:30:42;6.20;;;3.60;;
41661;SDS011;27351;45.992;12.666;2023-08-24T11:33:07;7.88;;;3.67;;
41661;SDS011;27351;45.992;12.666;2023-08-24T11:35:36;8.03;;;3.60;;
41661;SDS011;27351;45.992;12.666;2023-08-24T11:38:02;8.02;;;3.28;;
41661;SDS011;27351;45.992;12.666;2023-08-24T11:40:29;6.60;;;3.30;;
41661;SDS011;27351;45.992;12.666;2023-08-24T11:42:54;7.33;;;3.80;;
41661;SDS011;27351;45.992;12.666;2023-08-24T11:45:21;8.47;;;3.90;;
41661;SDS011;27351;45.992;12.666;2023-08-24T11:47:47;6.35;;;3.50;;
41661;SDS011;27351;45.992;12.666;2023-08-24T11:50:13;6.68;;;3.50;;
41661;SDS011;27351;45.992;12.666;2023-08-24T11:52:39;8.13;;;3.47;;
41661;SDS011;27351;45.992;12.666;2023-08-24T11:55:05;8.10;;;4.10;;
41661;SDS011;27351;45.992;12.666;2023-08-24T11:57:35;7.10;;;3.60;;
41661;SDS011;27351;45.992;12.666;2023-08-24T12:00:04;7.03;;;3.83;;
41661;SDS011;27351;45.992;12.666;2023-08-24T12:02:33;8.10;;;3.33;;
41661;SDS011;27351;45.992;12.666;2023-08-24T12:04:58;7.13;;;3.80;;
41661;SDS011;27351;45.992;12.666;2023-08-24T12:07:25;5.75;;;3.38;;
41661;SDS011;27351;45.992;12.666;2023-08-24T12:09:53;7.40;;;3.90;;
41661;SDS011;27351;45.992;12.666;2023-08-24T12:12:20;7.28;;;4.05;;
41661;SDS011;27351;45.992;12.666;2023-08-24T12:14:46;8.10;;;3.85;;
41661;SDS011;27351;45.992;12.666;2023-08-24T12:17:13;9.13;;;3.83;;
41661;SDS011;27351;45.992;12.666;2023-08-24T12:19:42;7.30;;;3.60;;
41661;SDS011;27351;45.992;12.666;2023-08-24T12:22:15;8.88;;;3.40;;
41661;SDS011;27351;45.992;12.666;2023-08-24T12:24:45;8.15;;;3.70;;
41661;SDS011;27351;45.992;12.666;2023-08-24T12:27:17;7.20;;;3.67;;
41661;SDS011;27351;45.992;12.666;2023-08-24T12:29:46;6.20;;;3.45;;
41661;SDS011;27351;45.992;12.666;2023-08-24T12:32:12;7.18;;;3.50;;
41661;SDS011;27351;45.992;12.666;2023-08-24T12:34:37;6.63;;;3.70;;
41661;SDS011;27351;45.992;12.666;2023-08-24T12:37:03;5.85;;;3.45;;
41661;SDS011;27351;45.992;12.666;2023-08-24T12:39:34;6.88;;;3.60;;
41661;SDS011;27351;45.992;12.666;2023-08-24T12:42:00;6.73;;;3.77;;
41661;SDS011;27351;45.992;12.666;2023-08-24T12:44:25;12.98;;;3.88;;
41661;SDS011;27351;45.992;12.666;2023-08-24T12:46:51;8.83;;;3.47;;
41661;SDS011;27351;45.992;12.666;2023-08-24T12:49:17;8.90;;;3.88;;
41661;SDS011;27351;45.992;12.666;2023-08-24T12:51:42;7.17;;;3.83;;
41661;SDS011;27351;45.992;12.666;2023-08-24T12:54:08;8.93;;;3.80;;
41661;SDS011;27351;45.992;12.666;2023-08-24T12:56:34;6.95;;;3.75;;
41661;SDS011;27351;45.992;12.666;2023-08-24T12:59:00;8.15;;;4.22;;
41661;SDS011;27351;45.992;12.666;2023-08-24T13:01:26;6.83;;;4.07;;
41661;SDS011;27351;45.992;12.666;2023-08-24T13:03:52;6.57;;;3.50;;
41661;SDS011;27351;45.992;12.666;2023-08-24T13:06:17;8.95;;;3.70;;
41661;SDS011;27351;45.992;12.666;2023-08-24T13:08:43;7.57;;;3.37;;
41661;SDS011;27351;45.992;12.666;2023-08-24T13:11:09;10.40;;;3.83;;
41661;SDS011;27351;45.992;12.666;2023-08-24T13:13:36;6.82;;;3.95;;
41661;SDS011;27351;45.992;12.666;2023-08-24T13:16:02;7.70;;;4.33;;
41661;SDS011;27351;45.992;12.666;2023-08-24T13:18:28;7.25;;;3.40;;
41661;SDS011;27351;45.992;12.666;2023-08-24T13:20:53;8.00;;;3.73;;
41661;SDS011;27351;45.992;12.666;2023-08-24T13:23:19;7.45;;;3.72;;
41661;SDS011;27351;45.992;12.666;2023-08-24T13:25:44;6.10;;;3.57;;
41661;SDS011;27351;45.992;12.666;2023-08-24T13:28:10;7.03;;;3.73;;
41661;SDS011;27351;45.992;12.666;2023-08-24T13:30:35;8.00;;;3.77;;
41661;SDS011;27351;45.992;12.666;2023-08-24T13:33:01;7.93;;;3.67;;
41661;SDS011;27351;45.992;12.666;2023-08-24T13:35:27;8.40;;;3.83;;
41661;SDS011;27351;45.992;12.666;2023-08-24T13:37:52;7.33;;;4.03;;
41661;SDS011;27351;45.992;12.666;2023-08-24T13:40:18;6.07;;;3.53;;
41661;SDS011;27351;45.992;12.666;2023-08-24T13:42:44;7.63;;;3.90;;
41661;SDS011;27351;45.992;12.666;2023-08-24T13:45:10;6.82;;;3.30;;
41661;SDS011;27351;45.992;12.666;2023-08-24T13:47:35;8.20;;;4.07;;
41661;SDS011;27351;45.992;12.666;2023-08-24T13:50:01;8.68;;;3.70;;
41661;SDS011;27351;45.992;12.666;2023-08-24T13:52:27;7.80;;;3.73;;
41661;SDS011;27351;45.992;12.666;2023-08-24T13:54:53;7.25;;;3.50;;
41661;SDS011;27351;45.992;12.666;2023-08-24T13:57:19;6.83;;;3.70;;
41661;SDS011;27351;45.992;12.666;2023-08-24T13:59:44;7.05;;;3.85;;
41661;SDS011;27351;45.992;12.666;2023-08-24T14:02:10;7.47;;;3.57;;
41661;SDS011;27351;45.992;12.666;2023-08-24T14:04:37;6.38;;;3.58;;
41661;SDS011;27351;45.992;12.666;2023-08-24T14:07:03;7.97;;;4.10;;
41661;SDS011;27351;45.992;12.666;2023-08-24T14:09:28;6.90;;;3.65;;
41661;SDS011;27351;45.992;12.666;2023-08-24T14:11:54;6.40;;;4.10;;
41661;SDS011;27351;45.992;12.666;2023-08-24T14:14:20;7.22;;;3.53;;
41661;SDS011;27351;45.992;12.666;2023-08-24T14:16:45;7.73;;;3.73;;
41661;SDS011;27351;45.992;12.666;2023-08-24T14:19:11;6.83;;;3.60;;
41661;SDS011;27351;45.992;12.666;2023-08-24T14:21:37;7.85;;;3.80;;
41661;SDS011;27351;45.992;12.666;2023-08-24T14:24:03;7.88;;;3.65;;
41661;SDS011;27351;45.992;12.666;2023-08-24T14:26:28;8.53;;;4.47;;
41661;SDS011;27351;45.992;12.666;2023-08-24T14:28:55;6.50;;;3.40;;
41661;SDS011;27351;45.992;12.666;2023-08-24T14:31:23;8.27;;;3.67;;
41661;SDS011;27351;45.992;12.666;2023-08-24T14:33:48;8.13;;;3.60;;
41661;SDS011;27351;45.992;12.666;2023-08-24T14:36:15;9.75;;;3.97;;
41661;SDS011;27351;45.992;12.666;2023-08-24T14:38:41;7.80;;;3.67;;